Time;durP1;ratioP1;P1;durP2;ratioP2;P2;SDS_P1;SDS_P2;PMS_P1;PMS_P2;Temp;Humidity;BMP_temperature;BMP_pressure;BME280_temperature;BME280_humidity;BME280_pressure;Samples;Min_cycle;Max_cycle;Signal;HPM_P1;HPM_P2
2021/01/16 00:01:04;;;;;;;25.95;16.55;;;;;;;-5.67;75.26;98186.67;1689385;84;20964;-64
2021/01/16 00:03:33;;;;;;;25.88;14.20;;;;;;;-5.65;75.60;98179.67;1689317;85;21375;-64
2021/01/16 00:06:04;;;;;;;22.17;12.65;;;;;;;-5.71;76.61;98204.56;1689294;83;21484;-65
2021/01/16 00:08:32;;;;;;;15.88;9.93;;;;;;;-5.77;75.07;98212.45;1710942;82;20938;-63
2021/01/16 00:11:00;;;;;;;17.40;10.82;;;;;;;-5.81;73.35;98222.08;1705617;83;21330;-63
2021/01/16 00:16:16;;;;;;;13.45;8.83;;;;;;;-5.88;72.67;98225.19;1837037;78;28076;-64
2021/01/16 00:18:46;;;;;;;15.68;10.43;;;;;;;-6.02;72.31;98238.83;1809646;79;20908;-64
2021/01/16 00:21:15;;;;;;;13.43;9.83;;;;;;;-6.07;72.40;98236.65;1809634;79;21366;-63
2021/01/16 00:23:42;;;;;;;9.95;7.70;;;;;;;-6.14;72.34;98238.88;1809563;79;21428;-62
2021/01/16 00:26:11;;;;;;;11.45;7.75;;;;;;;-6.24;72.55;98238.92;1809604;79;20972;-64
2021/01/16 00:28:40;;;;;;;12.88;7.95;;;;;;;-6.28;72.65;98239.80;1809493;79;20933;-64
2021/01/16 00:31:07;;;;;;;10.53;8.00;;;;;;;-6.31;72.48;98254.19;1809671;79;20865;-64
2021/01/16 00:33:36;;;;;;;13.30;9.43;;;;;;;-6.42;72.16;98251.62;1809531;79;21187;-64
2021/01/16 00:36:05;;;;;;;12.15;8.40;;;;;;;-6.45;72.12;98258.61;1809629;79;21378;-63
2021/01/16 00:38:41;;;;;;;12.07;8.60;;;;;;;-6.49;72.13;98266.91;1809574;79;20952;-63
2021/01/16 00:41:11;;;;;;;11.53;7.78;;;;;;;-6.53;71.76;98279.53;1809651;79;21011;-65
2021/01/16 00:43:40;;;;;;;12.90;10.10;;;;;;;-6.58;70.91;98276.94;1809567;79;20904;-64
2021/01/16 00:46:08;;;;;;;12.25;8.55;;;;;;;-6.61;70.08;98286.09;1809698;79;21309;-64
2021/01/16 00:48:38;;;;;;;13.40;8.85;;;;;;;-6.67;68.38;98284.80;1809396;79;20992;-64
2021/01/16 00:51:07;;;;;;;10.28;8.53;;;;;;;-6.81;66.69;98278.73;1809613;79;20908;-64
2021/01/16 00:53:36;;;;;;;12.70;9.53;;;;;;;-6.83;66.85;98295.71;1809178;79;20928;-64
2021/01/16 00:56:06;;;;;;;13.18;9.60;;;;;;;-7.00;66.12;98289.23;1808965;79;21054;-64
2021/01/16 00:58:36;;;;;;;11.38;9.48;;;;;;;-7.04;66.49;98290.09;1809449;79;21751;-64
2021/01/16 01:01:10;;;;;;;11.30;9.10;;;;;;;-7.10;65.97;98296.62;1807558;79;22035;-64
2021/01/16 01:03:38;;;;;;;11.85;7.72;;;;;;;-7.14;66.53;98294.45;1809547;79;20897;-65
2021/01/16 01:06:08;;;;;;;8.85;7.12;;;;;;;-7.14;66.53;98290.95;1809546;79;20896;-64
2021/01/16 01:08:35;;;;;;;12.47;8.35;;;;;;;-7.28;64.27;98294.45;1809557;79;21465;-63
2021/01/16 01:11:04;;;;;;;10.08;6.80;;;;;;;-7.30;64.62;98296.20;1809518;79;21188;-63
2021/01/16 01:13:33;;;;;;;8.90;6.10;;;;;;;-7.34;63.59;98285.76;1809430;79;21884;-64
2021/01/16 01:16:03;;;;;;;9.88;6.47;;;;;;;-7.40;63.97;98300.10;1814429;79;21019;-64
2021/01/16 01:18:31;;;;;;;8.75;5.95;;;;;;;-7.52;64.53;98313.58;1816084;79;21031;-63
2021/01/16 01:20:58;;;;;;;9.78;6.37;;;;;;;-7.63;64.44;98321.38;1816189;79;20893;-63
2021/01/16 01:23:26;;;;;;;8.75;5.95;;;;;;;-7.79;64.92;98310.46;1816089;79;21195;-63
2021/01/16 01:25:53;;;;;;;9.78;5.58;;;;;;;-7.89;65.57;98318.70;1815869;79;20967;-63
2021/01/16 01:28:22;;;;;;;8.55;5.80;;;;;;;-7.93;65.95;98310.86;1815517;78;20988;-63
2021/01/16 01:30:51;;;;;;;9.20;6.33;;;;;;;-8.02;66.55;98325.61;1815394;79;20979;-65
2021/01/16 01:33:18;;;;;;;7.78;5.65;;;;;;;-8.06;66.65;98325.16;1815566;79;20916;-63
2021/01/16 01:35:47;;;;;;;7.58;5.12;;;;;;;-8.10;66.95;98327.33;1815521;79;21188;-62
2021/01/16 01:38:16;;;;;;;9.03;5.53;;;;;;;-8.18;66.79;98330.34;1815375;79;20999;-62
2021/01/16 01:40:44;;;;;;;9.73;6.87;;;;;;;-8.24;66.44;98344.64;1815566;79;20968;-62
2021/01/16 01:43:13;;;;;;;6.83;5.05;;;;;;;-8.33;65.95;98341.55;1815553;79;21807;-63
2021/01/16 01:45:41;;;;;;;8.50;5.78;;;;;;;-8.44;64.50;98355.84;1815576;79;21425;-63
2021/01/16 01:48:10;;;;;;;11.28;6.35;;;;;;;-8.48;63.80;98351.91;1815491;79;21359;-63
2021/01/16 01:50:38;;;;;;;6.28;4.65;;;;;;;-8.51;63.80;98355.39;1815504;79;20943;-62
2021/01/16 01:53:06;;;;;;;11.38;5.30;;;;;;;-8.67;61.22;98361.34;1815537;79;20905;-63
2021/01/16 01:55:34;;;;;;;8.68;4.97;;;;;;;-8.76;61.30;98359.12;1815463;79;20963;-63
2021/01/16 01:58:04;;;;;;;7.80;4.33;;;;;;;-8.80;60.84;98370.81;1814140;79;20968;-63
2021/01/16 02:00:32;;;;;;;6.62;4.25;;;;;;;-8.92;60.10;98365.95;1815564;79;22240;-64
2021/01/16 02:03:00;;;;;;;8.73;4.65;;;;;;;-9.00;59.63;98371.95;1815562;79;21354;-63
2021/01/16 02:05:28;;;;;;;5.62;3.58;;;;;;;-9.12;59.24;98370.99;1732461;79;20913;-63
2021/01/16 02:07:58;;;;;;;7.55;4.17;;;;;;;-9.23;59.58;98372.64;1815493;79;20916;-63
2021/01/16 02:10:26;;;;;;;8.03;5.62;;;;;;;-9.31;59.85;98379.50;1815512;79;20916;-63
2021/01/16 02:12:56;;;;;;;8.33;4.70;;;;;;;-9.42;59.47;98383.73;1815495;78;21250;-63
2021/01/16 02:15:32;;;;;;;7.85;4.42;;;;;;;-9.42;60.41;98389.80;1815306;79;20967;-63
2021/01/16 02:18:21;;;;;;;6.75;4.10;;;;;;;-9.49;60.19;98390.58;1815546;79;21030;-64
2021/01/16 02:20:50;;;;;;;7.08;5.08;;;;;;;-9.59;60.20;98398.72;1815520;78;20900;-63
2021/01/16 02:23:31;;;;;;;8.00;3.45;;;;;;;-9.65;60.46;98394.75;1815523;78;20912;-63
2021/01/16 02:26:19;;;;;;;7.70;4.10;;;;;;;-9.70;60.96;98405.53;1815481;79;21324;-62
2021/01/16 02:29:00;;;;;;;7.00;3.75;;;;;;;-9.81;61.20;98399.77;1815438;79;20920;-64
2021/01/16 02:31:33;;;;;;;5.53;3.30;;;;;;;-9.83;61.61;98401.48;1815743;79;20912;-64
2021/01/16 02:34:02;;;;;;;8.08;4.20;;;;;;;-9.90;61.46;98406.19;1815481;79;20987;-64
2021/01/16 02:36:43;;;;;;;6.40;3.47;;;;;;;-9.95;61.52;98406.53;1815460;79;20995;-65
2021/01/16 02:39:59;;;;;;;8.83;4.00;;;;;;;-10.01;61.60;98410.34;1815435;79;21187;-64
2021/01/16 02:42:46;;;;;;;6.80;4.50;;;;;;;-10.05;61.80;98422.87;1815323;79;20944;-63
2021/01/16 02:45:17;;;;;;;5.28;3.67;;;;;;;-10.12;62.09;98432.73;1815467;79;20972;-63
2021/01/16 02:48:06;;;;;;;6.20;4.03;;;;;;;-10.15;62.47;98433.98;1815404;79;20971;-63
2021/01/16 02:50:44;;;;;;;4.87;3.35;;;;;;;-10.14;63.13;98433.14;1815533;79;20964;-65
2021/01/16 02:53:12;;;;;;;6.83;4.22;;;;;;;-10.17;62.37;98435.26;1815231;79;21425;-62
2021/01/16 02:55:40;;;;;;;8.08;5.03;;;;;;;-10.19;62.17;98441.73;1815368;78;20912;-64
2021/01/16 02:58:07;;;;;;;4.85;3.58;;;;;;;-10.23;62.40;98436.06;1815509;79;20920;-65
2021/01/16 03:00:36;;;;;;;7.03;4.70;;;;;;;-10.25;62.53;98445.54;1815382;79;20904;-64
2021/01/16 03:03:05;;;;;;;7.17;4.65;;;;;;;-10.26;62.60;98452.02;1815465;79;21389;-64
2021/01/16 03:05:32;;;;;;;8.33;4.75;;;;;;;-10.28;62.56;98461.08;1815459;79;21373;-64
2021/01/16 03:08:00;;;;;;;9.25;4.90;;;;;;;-10.27;62.98;98464.57;1815352;79;20928;-64
2021/01/16 03:10:29;;;;;;;9.00;5.55;;;;;;;-10.27;62.92;98474.52;1815482;78;21341;-64
2021/01/16 03:12:57;;;;;;;8.58;5.33;;;;;;;-10.26;63.27;98478.88;1815388;79;20900;-64
2021/01/16 03:15:24;;;;;;;9.20;5.10;;;;;;;-10.25;63.00;98478.01;1815361;79;20956;-64
2021/01/16 03:17:57;;;;;;;7.97;4.53;;;;;;;-10.28;62.63;98470.17;1815493;79;21142;-65
2021/01/16 03:20:29;;;;;;;6.60;4.20;;;;;;;-10.30;62.23;98475.78;1786760;79;21002;-62
2021/01/16 03:23:02;;;;;;;6.67;4.05;;;;;;;-10.34;61.95;98477.94;1815644;79;20912;-62
2021/01/16 03:25:32;;;;;;;5.72;3.75;;;;;;;-10.37;61.77;98477.89;1815589;79;20865;-64
2021/01/16 03:28:01;;;;;;;8.20;4.75;;;;;;;-10.44;62.18;98474.73;1815465;79;21027;-66
2021/01/16 03:30:31;;;;;;;8.40;4.70;;;;;;;-10.50;62.21;98475.50;1815483;78;21382;-64
2021/01/16 03:32:59;;;;;;;10.80;5.90;;;;;;;-10.49;62.72;98477.69;1815357;79;21888;-63
2021/01/16 03:35:28;;;;;;;7.62;4.40;;;;;;;-10.51;62.71;98470.28;1815371;78;21345;-63
2021/01/16 03:37:56;;;;;;;6.60;4.47;;;;;;;-10.55;62.85;98483.64;1815362;79;21484;-63
2021/01/16 03:40:24;;;;;;;8.00;4.25;;;;;;;-10.58;63.02;98489.69;1815400;79;20953;-64
2021/01/16 03:42:53;;;;;;;6.60;3.98;;;;;;;-10.61;63.32;98476.66;1815468;79;21364;-64
2021/01/16 03:45:22;;;;;;;9.03;5.33;;;;;;;-10.61;63.57;98475.77;1815416;78;21007;-64
2021/01/16 03:47:51;;;;;;;5.40;3.50;;;;;;;-10.60;63.61;98482.71;1815424;79;21026;-64
2021/01/16 03:50:21;;;;;;;8.85;5.62;;;;;;;-10.60;63.82;98488.77;1815194;78;21034;-64
2021/01/16 03:52:50;;;;;;;6.40;4.12;;;;;;;-10.60;64.06;98482.71;1815493;79;20865;-64
2021/01/16 03:55:18;;;;;;;7.17;4.30;;;;;;;-10.58;64.43;98487.09;1815350;79;21345;-63
2021/01/16 03:57:46;;;;;;;7.25;4.87;;;;;;;-10.58;64.24;98488.39;1815396;79;21343;-64
2021/01/16 04:00:17;;;;;;;9.03;5.53;;;;;;;-10.57;63.91;98481.46;1815365;79;20987;-64
2021/01/16 04:02:46;;;;;;;8.25;4.70;;;;;;;-10.58;64.00;98479.70;1815431;79;20864;-64
2021/01/16 04:05:15;;;;;;;8.78;4.10;;;;;;;-10.59;63.56;98476.25;1815388;79;20995;-64
2021/01/16 04:07:49;;;;;;;8.38;4.53;;;;;;;-10.65;63.27;98483.94;1815388;79;21362;-64
2021/01/16 04:10:18;;;;;;;7.70;4.80;;;;;;;-10.72;63.43;98482.07;1815321;79;20924;-62
2021/01/16 04:12:45;;;;;;;7.70;4.75;;;;;;;-10.74;63.62;98466.91;1815449;79;20877;-62
2021/01/16 04:15:14;;;;;;;7.92;5.28;;;;;;;-10.77;63.84;98475.50;1815335;79;21025;-63
2021/01/16 04:17:43;;;;;;;8.00;5.33;;;;;;;-10.79;63.98;98465.97;1770506;81;21420;-63
2021/01/16 04:20:12;;;;;;;10.43;4.67;;;;;;;-10.78;64.17;98472.91;1770299;80;21370;-64
2021/01/16 04:22:39;;;;;;;8.88;6.05;;;;;;;-10.79;64.25;98465.53;1770337;81;20939;-62
2021/01/16 04:25:07;;;;;;;8.33;5.95;;;;;;;-10.82;64.28;98468.51;1770497;80;20919;-62
2021/01/16 04:27:35;;;;;;;8.78;4.97;;;;;;;-10.80;64.60;98463.81;1770366;80;20991;-63
2021/01/16 04:30:04;;;;;;;6.55;4.30;;;;;;;-10.77;64.88;98466.86;1770407;80;20971;-63
2021/01/16 04:32:34;;;;;;;5.95;4.08;;;;;;;-10.76;64.70;98460.83;1770341;81;21194;-64
2021/01/16 04:35:01;;;;;;;9.18;5.78;;;;;;;-10.74;64.61;98465.61;1770242;81;21042;-65
2021/01/16 04:37:29;;;;;;;8.18;5.17;;;;;;;-10.74;64.70;98469.50;1770391;81;20932;-64
2021/01/16 04:39:57;;;;;;;7.58;4.10;;;;;;;-10.75;64.74;98476.83;1770333;80;20903;-63
2021/01/16 04:42:26;;;;;;;7.00;3.87;;;;;;;-10.76;64.94;98473.80;1770414;81;20932;-64
2021/01/16 04:44:55;;;;;;;8.20;5.30;;;;;;;-10.74;65.02;98478.59;1770400;80;20951;-64
2021/01/16 04:47:26;;;;;;;10.25;4.67;;;;;;;-10.73;64.90;98478.61;1740596;81;20940;-64
2021/01/16 04:49:56;;;;;;;8.78;4.65;;;;;;;-10.72;64.87;98470.39;1770313;81;20987;-64
2021/01/16 04:52:27;;;;;;;7.22;4.40;;;;;;;-10.70;64.97;98473.91;1702330;81;21548;-64
2021/01/16 04:54:55;;;;;;;7.53;4.83;;;;;;;-10.69;65.15;98474.33;1740997;81;21035;-64
2021/01/16 04:57:27;;;;;;;8.85;5.70;;;;;;;-10.68;65.12;98470.91;1770383;81;21198;-65
2021/01/16 04:59:56;;;;;;;10.08;5.33;;;;;;;-10.67;65.03;98476.55;1741136;81;20896;-63
2021/01/16 05:02:24;;;;;;;9.18;5.42;;;;;;;-10.64;65.15;98477.91;1740849;81;21003;-63
2021/01/16 05:04:53;;;;;;;9.78;5.65;;;;;;;-10.60;65.34;98473.62;1770509;81;20979;-63
2021/01/16 05:07:21;;;;;;;9.00;5.67;;;;;;;-10.57;65.48;98470.64;1770546;81;21019;-64
2021/01/16 05:09:49;;;;;;;8.33;4.87;;;;;;;-10.52;65.67;98474.61;1770497;81;21204;-64
2021/01/16 05:12:53;;;;;;;10.25;6.10;;;;;;;-10.47;65.15;98468.19;1740728;81;20896;-63
2021/01/16 05:15:22;;;;;;;6.37;3.75;;;;;;;-10.45;64.99;98474.27;1770402;81;21010;-64
2021/01/16 05:18:05;;;;;;;24.18;10.13;;;;;;;-10.47;64.90;98473.39;1801492;79;21336;-62
2021/01/16 05:20:34;;;;;;;11.68;6.60;;;;;;;-10.51;64.86;98482.86;1804443;79;20980;-63
2021/01/16 05:23:13;;;;;;;20.65;9.55;;;;;;;-10.52;64.99;98486.30;1804446;79;21332;-65
2021/01/16 05:25:46;;;;;;;19.30;9.18;;;;;;;-10.53;65.11;98476.78;1804403;79;21039;-64
2021/01/16 05:28:17;;;;;;;35.20;16.37;;;;;;;-10.52;65.12;98484.13;1804280;79;20995;-62
2021/01/16 05:30:58;;;;;;;20.10;11.20;;;;;;;-10.51;65.06;98471.17;1804347;79;20916;-64
2021/01/16 05:33:30;;;;;;;13.50;8.05;;;;;;;-10.49;65.11;98476.39;1804376;79;21322;-64
2021/01/16 05:36:00;;;;;;;11.33;6.42;;;;;;;-10.48;65.20;98472.92;1804414;79;21343;-64
2021/01/16 05:38:34;;;;;;;9.43;5.42;;;;;;;-10.48;65.29;98461.24;1804419;79;21351;-64
2021/01/16 05:41:13;;;;;;;7.45;5.33;;;;;;;-10.46;65.49;98469.95;1804431;79;21004;-64
2021/01/16 05:43:42;;;;;;;8.50;4.85;;;;;;;-10.44;65.58;98465.64;1804375;79;20893;-63
2021/01/16 05:46:13;;;;;;;8.93;5.85;;;;;;;-10.42;65.37;98458.74;1804464;79;21524;-63
2021/01/16 05:48:40;;;;;;;6.78;4.08;;;;;;;-10.43;65.39;98466.11;1804377;79;21352;-64
2021/01/16 05:51:08;;;;;;;8.98;5.40;;;;;;;-10.42;65.57;98456.14;1804401;79;20920;-64
2021/01/16 05:53:36;;;;;;;9.25;4.97;;;;;;;-10.43;65.62;98450.09;1804371;79;20904;-64
2021/01/16 05:56:05;;;;;;;8.15;5.30;;;;;;;-10.42;65.63;98463.94;1804216;79;20995;-64
2021/01/16 05:58:34;;;;;;;6.17;4.50;;;;;;;-10.42;65.74;98458.74;1804367;79;20925;-64
2021/01/16 06:01:07;;;;;;;8.33;4.60;;;;;;;-10.42;66.02;98469.13;1804400;79;21188;-64
2021/01/16 06:03:38;;;;;;;8.85;5.28;;;;;;;-10.43;66.20;98455.72;1804431;79;20932;-64
2021/01/16 06:06:11;;;;;;;10.03;5.33;;;;;;;-10.41;66.40;98453.57;1804400;79;20929;-64
2021/01/16 06:08:56;;;;;;;10.95;5.42;;;;;;;-10.37;66.33;98457.11;1804465;79;20912;-64
2021/01/16 06:11:24;;;;;;;8.78;6.20;;;;;;;-10.36;66.45;98449.34;1804455;79;20972;-64
2021/01/16 06:13:55;;;;;;;11.48;5.53;;;;;;;-10.34;66.59;98448.06;1804327;79;21374;-65
2021/01/16 06:16:22;;;;;;;12.18;6.62;;;;;;;-10.29;66.67;98447.67;1804349;78;21811;-63
2021/01/16 06:18:56;;;;;;;11.05;6.53;;;;;;;-10.27;66.64;98449.84;1804310;79;20921;-63
2021/01/16 06:21:27;;;;;;;9.35;6.25;;;;;;;-10.24;66.58;98447.73;1804328;79;20976;-64
2021/01/16 06:24:00;;;;;;;11.00;7.05;;;;;;;-10.23;66.57;98442.56;1804523;79;21394;-63
2021/01/16 06:26:28;;;;;;;8.55;6.05;;;;;;;-10.19;66.62;98448.23;1804380;79;21188;-64
2021/01/16 06:29:00;;;;;;;8.98;5.95;;;;;;;-10.19;66.55;98449.52;1804259;79;20932;-63
2021/01/16 06:31:30;;;;;;;9.45;5.62;;;;;;;-10.17;66.73;98446.95;1804388;79;20924;-63
2021/01/16 06:34:08;;;;;;;9.43;6.22;;;;;;;-10.14;66.64;98448.73;1804391;79;20905;-64
2021/01/16 06:36:37;;;;;;;11.78;6.00;;;;;;;-10.11;66.67;98448.77;1804342;79;21414;-63
2021/01/16 06:39:08;;;;;;;11.43;6.78;;;;;;;-10.09;66.77;98444.46;1804342;79;21185;-64
2021/01/16 06:41:37;;;;;;;8.75;6.42;;;;;;;-10.06;66.75;98441.91;1804353;79;20925;-63
2021/01/16 06:44:15;;;;;;;12.47;6.00;;;;;;;-10.02;66.65;98437.20;1804282;78;20952;-64
2021/01/16 06:46:46;;;;;;;8.03;5.75;;;;;;;-9.97;66.58;98441.16;1804353;79;20992;-63
2021/01/16 06:49:27;;;;;;;9.35;5.83;;;;;;;-9.94;66.31;98434.27;1804357;79;20988;-64
2021/01/16 06:52:00;;;;;;;9.45;6.15;;;;;;;-9.91;66.27;98443.41;1804577;79;21204;-64
2021/01/16 06:54:38;;;;;;;12.37;6.62;;;;;;;-9.88;66.21;98443.89;1803873;79;20901;-64
2021/01/16 06:57:14;;;;;;;7.15;4.55;;;;;;;-9.85;66.25;98443.92;1804253;79;20881;-63
2021/01/16 06:59:43;;;;;;;11.50;6.67;;;;;;;-9.79;66.24;98444.41;1804319;79;21004;-63
2021/01/16 07:02:37;;;;;;;11.75;8.08;;;;;;;-9.76;66.24;98440.55;1804394;79;21326;-63
2021/01/16 07:05:10;;;;;;;10.88;7.33;;;;;;;-9.71;66.46;98438.47;1804359;79;21360;-64
2021/01/16 07:07:40;;;;;;;11.90;8.48;;;;;;;-9.66;66.30;98438.52;1803130;79;21370;-64
2021/01/16 07:10:11;;;;;;;13.28;9.18;;;;;;;-9.60;66.37;98434.70;1804211;79;21325;-63
2021/01/16 07:12:47;;;;;;;12.85;7.80;;;;;;;-9.53;66.54;98438.23;1804374;79;20909;-63
2021/01/16 07:15:19;;;;;;;16.62;8.78;;;;;;;-9.47;66.41;98422.26;1803792;79;20972;-64
2021/01/16 07:17:48;;;;;;;16.23;9.20;;;;;;;-9.39;66.25;98424.08;1800449;79;21362;-63
2021/01/16 07:20:16;;;;;;;12.25;8.10;;;;;;;-9.34;65.81;98415.89;1797771;79;20999;-63
2021/01/16 07:22:44;;;;;;;14.83;9.50;;;;;;;-9.28;65.76;98421.16;1797753;79;21410;-63
2021/01/16 07:25:15;;;;;;;15.55;9.45;;;;;;;-9.26;65.50;98416.83;1797781;79;20973;-65
2021/01/16 07:27:44;;;;;;;17.05;8.08;;;;;;;-9.21;65.42;98425.98;1797875;79;20925;-65
2021/01/16 07:30:14;;;;;;;15.65;8.58;;;;;;;-9.19;64.96;98413.45;1797789;79;21415;-64
2021/01/16 07:32:50;;;;;;;14.70;9.38;;;;;;;-9.16;64.98;98422.58;1776317;79;20973;-63
2021/01/16 07:35:25;;;;;;;14.95;9.98;;;;;;;-9.13;64.91;98415.22;1797721;79;20909;-64
2021/01/16 07:37:54;;;;;;;15.90;9.15;;;;;;;-9.10;64.94;98412.23;1797747;79;20965;-64
2021/01/16 07:40:27;;;;;;;16.85;9.03;;;;;;;-9.04;65.00;98419.64;1797549;79;20991;-64
2021/01/16 07:43:04;;;;;;;14.98;8.75;;;;;;;-8.98;65.12;98410.16;1797919;79;22369;-65
2021/01/16 07:45:39;;;;;;;15.08;8.95;;;;;;;-8.91;64.87;98405.86;1775334;79;20968;-65
2021/01/16 07:48:07;;;;;;;11.12;7.45;;;;;;;-8.84;64.77;98397.26;1797768;79;20909;-64
2021/01/16 07:50:38;;;;;;;13.15;7.92;;;;;;;-8.81;64.48;98397.69;1797696;79;20980;-64
2021/01/16 07:53:10;;;;;;;13.18;8.18;;;;;;;-8.78;64.35;98396.01;1798135;79;20917;-63
2021/01/16 07:55:44;;;;;;;10.72;6.78;;;;;;;-8.74;64.49;98395.59;1797783;79;21415;-64
2021/01/16 07:58:36;;;;;;;12.75;7.70;;;;;;;-8.73;64.39;98395.60;1797719;79;20964;-63
2021/01/16 08:01:27;;;;;;;10.82;7.78;;;;;;;-8.68;64.15;98397.38;1797758;79;20972;-65
2021/01/16 08:04:23;;;;;;;10.35;6.83;;;;;;;-8.66;64.19;98393.05;1776283;79;20976;-63
2021/01/16 08:07:09;;;;;;;13.22;8.70;;;;;;;-8.65;64.21;98394.80;1797809;79;21019;-65
2021/01/16 08:09:52;;;;;;;13.60;8.85;;;;;;;-8.62;64.48;98387.88;1797782;79;21319;-63
2021/01/16 08:12:24;;;;;;;18.02;9.23;;;;;;;-8.57;64.60;98382.70;1797657;79;20928;-65
2021/01/16 08:14:53;;;;;;;16.27;10.30;;;;;;;-8.50;64.54;98392.27;1797866;79;20996;-64
2021/01/16 08:17:26;;;;;;;17.42;9.95;;;;;;;-8.42;64.71;98401.00;1797655;79;20916;-64
2021/01/16 08:20:02;;;;;;;16.67;10.72;;;;;;;-8.36;64.58;98391.89;1797919;79;20999;-65
2021/01/16 08:22:38;;;;;;;16.52;10.58;;;;;;;-8.26;64.53;98395.86;1797737;79;21201;-63
2021/01/16 08:25:11;;;;;;;18.73;11.50;;;;;;;-8.17;64.57;98394.61;1797728;79;20965;-63
2021/01/16 08:27:41;;;;;;;11.55;8.25;;;;;;;-8.08;64.44;98397.27;1797798;79;20932;-64
2021/01/16 08:30:14;;;;;;;16.67;9.20;;;;;;;-8.00;64.28;98402.52;1776018;79;20909;-64
2021/01/16 08:32:54;;;;;;;12.03;7.35;;;;;;;-7.94;64.26;98396.03;1797893;79;20921;-65
2021/01/16 08:35:39;;;;;;;15.58;10.68;;;;;;;-7.89;64.11;98393.45;1790303;79;22106;-64
2021/01/16 08:38:19;;;;;;;18.45;11.22;;;;;;;-7.86;63.80;98395.63;1798154;79;20933;-65
2021/01/16 08:41:07;;;;;;;23.52;11.78;;;;;;;-7.83;63.89;98392.17;1797966;79;20913;-64
2021/01/16 08:43:52;;;;;;;15.78;8.83;;;;;;;-7.81;63.63;98394.34;1797953;79;20929;-64
2021/01/16 08:46:34;;;;;;;18.95;9.78;;;;;;;-7.76;63.76;98397.83;1797973;79;20920;-64
2021/01/16 08:49:15;;;;;;;20.90;11.08;;;;;;;-7.74;63.63;98390.91;1798000;79;22254;-63
2021/01/16 08:51:52;;;;;;;19.70;11.05;;;;;;;-7.69;63.68;98393.53;1798158;79;20972;-63
2021/01/16 08:54:24;;;;;;;17.90;11.15;;;;;;;-7.66;63.64;98389.19;1777278;79;20885;-64
2021/01/16 08:56:55;;;;;;;17.20;10.25;;;;;;;-7.59;63.33;98392.67;1797989;79;21031;-65
2021/01/16 08:59:30;;;;;;;18.05;9.68;;;;;;;-7.52;63.04;98394.86;1776231;79;21013;-65
2021/01/16 09:02:12;;;;;;;19.12;10.40;;;;;;;-7.48;62.85;98397.93;1797919;79;21354;-63
2021/01/16 09:04:41;;;;;;;;;;;;;;;-7.43;62.68;98385.75;1800563;79;20917;-63
2021/01/16 09:07:22;;;;;;;18.82;10.35;;;;;;;-7.38;62.49;98382.72;1797404;79;20129;-63
2021/01/16 09:09:59;;;;;;;13.38;8.60;;;;;;;-7.39;62.41;98379.69;1797840;79;20932;-63
2021/01/16 09:12:38;;;;;;;21.77;10.70;;;;;;;-7.30;62.56;98387.54;1797907;79;20921;-62
2021/01/16 09:15:43;;;;;;;20.30;10.68;;;;;;;-7.23;63.02;98378.42;1797968;79;21358;-62
2021/01/16 09:18:16;;;;;;;18.15;9.78;;;;;;;-7.22;62.15;98367.98;1796296;79;21437;-62
2021/01/16 09:20:53;;;;;;;18.17;10.28;;;;;;;-7.18;62.22;98376.67;1798030;79;21558;-62
2021/01/16 09:23:30;;;;;;;15.80;10.28;;;;;;;-7.23;61.50;98364.06;1797891;79;20913;-62
2021/01/16 09:26:07;;;;;;;18.52;9.45;;;;;;;-7.18;61.99;98370.15;1797953;79;20901;-62
2021/01/16 09:28:53;;;;;;;18.55;11.05;;;;;;;-7.15;62.16;98363.19;1797914;79;22411;-62
2021/01/16 09:31:45;;;;;;;16.48;9.75;;;;;;;-7.11;62.31;98354.50;1797790;79;20917;-62
2021/01/16 09:34:20;;;;;;;20.97;12.28;;;;;;;-7.03;62.34;98357.11;1797910;79;20968;-63
2021/01/16 09:36:57;;;;;;;16.67;10.35;;;;;;;-6.97;62.35;98357.12;1797830;79;20905;-62
2021/01/16 09:39:34;;;;;;;18.27;11.20;;;;;;;-6.91;62.26;98353.61;1797922;79;20969;-63
2021/01/16 09:42:21;;;;;;;16.48;9.73;;;;;;;-6.86;62.38;98346.64;1797896;79;22265;-63
2021/01/16 09:44:51;;;;;;;17.12;9.15;;;;;;;-6.81;62.14;98351.86;1778664;79;20873;-62
2021/01/16 09:47:32;;;;;;;17.32;8.85;;;;;;;-6.74;62.12;98343.16;1798008;79;21347;-63
2021/01/16 09:50:06;;;;;;;17.32;9.90;;;;;;;-6.76;62.10;98343.61;1797856;79;20937;-63
2021/01/16 09:52:33;;;;;;;15.55;9.00;;;;;;;-6.75;61.58;98342.72;1798003;79;20969;-61
2021/01/16 09:55:03;;;;;;;15.60;10.70;;;;;;;-6.77;61.19;98337.94;1796682;79;21373;-62
2021/01/16 09:57:40;;;;;;;12.82;7.90;;;;;;;-6.74;61.50;98341.86;1796383;79;20997;-61
2021/01/16 10:00:14;;;;;;;12.70;8.05;;;;;;;-6.74;61.28;98344.47;1796594;79;20980;-63
2021/01/16 10:02:43;;;;;;;14.93;10.10;;;;;;;-6.76;61.00;98335.33;1796749;79;20953;-65
2021/01/16 10:05:16;;;;;;;14.93;8.63;;;;;;;-6.69;61.45;98344.02;1797416;79;21557;-64
2021/01/16 10:07:43;;;;;;;14.28;8.43;;;;;;;-6.61;61.48;98343.56;1797100;79;21338;-62
2021/01/16 10:10:14;;;;;;;14.90;9.40;;;;;;;-6.57;61.38;98336.17;1797246;79;20992;-62
2021/01/16 10:12:46;;;;;;;15.93;9.10;;;;;;;-6.55;60.98;98331.80;1797251;79;20996;-62
2021/01/16 10:15:18;;;;;;;14.00;8.70;;;;;;;-6.52;60.86;98335.30;1796860;79;20945;-62
2021/01/16 10:17:48;;;;;;;19.70;8.95;;;;;;;-6.52;60.92;98335.30;1797392;79;21019;-62
2021/01/16 10:20:19;;;;;;;10.03;6.55;;;;;;;-6.45;61.24;98331.78;1775095;79;21370;-62
2021/01/16 10:22:54;;;;;;;10.28;7.28;;;;;;;-6.41;60.87;98330.91;1797074;79;21039;-63
2021/01/16 10:25:21;;;;;;;13.45;9.08;;;;;;;-6.34;61.22;98328.70;1775383;79;21035;-62
2021/01/16 10:27:53;;;;;;;11.80;8.53;;;;;;;-6.31;61.32;98321.30;1797050;79;20917;-61
2021/01/16 10:30:24;;;;;;;13.80;8.40;;;;;;;-6.31;61.42;98313.45;1797386;79;20965;-63
2021/01/16 10:32:52;;;;;;;13.80;8.55;;;;;;;-6.31;60.94;98318.68;1797319;79;21363;-63
2021/01/16 10:35:30;;;;;;;12.35;7.60;;;;;;;-6.30;61.25;98326.52;1797157;79;20968;-63
2021/01/16 10:38:00;;;;;;;10.55;7.60;;;;;;;-6.30;60.79;98310.84;1797305;79;20969;-62
2021/01/16 10:40:29;;;;;;;12.28;8.10;;;;;;;-6.26;60.38;98312.58;1797299;79;21016;-62
2021/01/16 10:42:59;;;;;;;13.18;8.95;;;;;;;-6.26;60.16;98306.05;1797205;79;20973;-62
2021/01/16 10:45:30;;;;;;;13.83;9.08;;;;;;;-6.23;60.49;98302.11;1797385;79;22270;-62
2021/01/16 10:48:13;;;;;;;15.00;9.95;;;;;;;-6.22;60.17;98297.29;1797188;79;20992;-63
2021/01/16 10:50:57;;;;;;;14.85;10.80;;;;;;;-6.12;60.79;98293.34;1825841;77;27925;-62
2021/01/16 10:53:38;;;;;;;14.10;9.50;;;;;;;-6.03;60.55;98299.84;1817129;79;21023;-61
2021/01/16 10:56:15;;;;;;;13.98;8.65;;;;;;;-5.91;60.09;98290.59;1817058;79;22167;-62
2021/01/16 10:58:44;;;;;;;10.40;8.00;;;;;;;-5.91;60.12;98285.36;1816705;79;21631;-63
2021/01/16 11:01:12;;;;;;;13.22;9.93;;;;;;;-5.97;59.93;98284.12;1816801;79;21039;-63
2021/01/16 11:03:40;;;;;;;15.03;8.60;;;;;;;-5.90;60.46;98281.84;1816781;78;20967;-63
2021/01/16 11:06:11;;;;;;;14.13;9.48;;;;;;;-5.91;59.88;98280.13;1817056;79;20956;-63
2021/01/16 11:08:39;;;;;;;10.30;8.58;;;;;;;-5.83;60.20;98275.72;1816964;78;21189;-62
2021/01/16 11:11:25;;;;;;;12.70;8.68;;;;;;;-5.83;59.74;98275.72;1816823;79;20999;-62
2021/01/16 11:13:54;;;;;;;13.30;8.95;;;;;;;-5.75;59.94;98266.52;1817069;78;20995;-62
2021/01/16 11:16:25;;;;;;;12.75;8.05;;;;;;;-5.70;59.35;98267.80;1816867;79;20995;-63
2021/01/16 11:18:54;;;;;;;11.78;7.58;;;;;;;-5.74;58.73;98268.23;1817000;79;20995;-62
2021/01/16 11:21:49;;;;;;;15.80;9.20;;;;;;;-5.75;58.92;98270.44;1783637;79;21356;-63
2021/01/16 11:24:49;;;;;;;13.32;9.00;;;;;;;-5.71;58.89;98264.30;1816815;79;20960;-62
2021/01/16 11:27:17;;;;;;;12.30;7.37;;;;;;;-5.70;59.12;98259.50;1816635;78;21007;-62
2021/01/16 11:29:45;;;;;;;13.10;8.33;;;;;;;-5.70;58.85;98257.34;1816781;79;21031;-62
2021/01/16 11:32:20;;;;;;;16.00;9.65;;;;;;;-5.74;58.58;98255.61;1816740;79;20971;-63
2021/01/16 11:35:12;;;;;;;14.68;9.25;;;;;;;-5.76;58.79;98259.98;1817184;79;22266;-63
2021/01/16 11:37:57;;;;;;;10.50;7.42;;;;;;;-5.83;58.73;98261.78;1817076;79;20995;-62
2021/01/16 11:40:32;;;;;;;14.35;9.23;;;;;;;-5.89;58.85;98252.21;1817029;79;20991;-63
2021/01/16 11:43:07;;;;;;;12.70;7.08;;;;;;;-5.92;58.89;98258.77;1817058;78;21018;-62
2021/01/16 11:45:37;;;;;;;10.95;7.33;;;;;;;-6.01;58.79;98257.54;1816702;79;20956;-62
2021/01/16 11:48:06;;;;;;;14.07;8.65;;;;;;;-6.09;59.18;98252.80;1817473;79;21203;-63
2021/01/16 11:50:37;;;;;;;8.80;6.92;;;;;;;-6.11;59.51;98237.56;1815855;79;20967;-63
2021/01/16 11:53:10;;;;;;;15.10;8.93;;;;;;;-6.13;59.64;98242.80;1814927;79;21698;-63